sensor_id;sensor_type;location;lat;lon;timestamp;P1;durP1;ratioP1;P2;durP2;ratioP2
43706;SDS011;61348;53.392;-6.248;2022-12-07T00:01:18;13.48;;;4.32;;
43706;SDS011;61348;53.392;-6.248;2022-12-07T00:03:47;12.57;;;4.35;;
43706;SDS011;61348;53.392;-6.248;2022-12-07T00:06:16;10.30;;;3.63;;
43706;SDS011;61348;53.392;-6.248;2022-12-07T00:08:44;9.52;;;4.30;;
43706;SDS011;61348;53.392;-6.248;2022-12-07T00:11:12;13.90;;;5.03;;
43706;SDS011;61348;53.392;-6.248;2022-12-07T00:13:44;13.18;;;3.95;;
43706;SDS011;61348;53.392;-6.248;2022-12-07T00:16:13;17.45;;;4.50;;
43706;SDS011;61348;53.392;-6.248;2022-12-07T00:18:42;9.55;;;5.35;;
43706;SDS011;61348;53.392;-6.248;2022-12-07T00:21:13;9.15;;;3.80;;
43706;SDS011;61348;53.392;-6.248;2022-12-07T00:23:50;10.77;;;3.78;;
43706;SDS011;61348;53.392;-6.248;2022-12-07T00:28:46;8.90;;;3.88;;
43706;SDS011;61348;53.392;-6.248;2022-12-07T00:31:14;9.23;;;4.50;;
43706;SDS011;61348;53.392;-6.248;2022-12-07T00:33:43;9.75;;;3.78;;
43706;SDS011;61348;53.392;-6.248;2022-12-07T00:36:12;12.43;;;5.10;;
43706;SDS011;61348;53.392;-6.248;2022-12-07T00:38:41;12.57;;;4.32;;
43706;SDS011;61348;53.392;-6.248;2022-12-07T00:41:12;10.32;;;3.97;;
43706;SDS011;61348;53.392;-6.248;2022-12-07T00:46:08;9.32;;;3.65;;
43706;SDS011;61348;53.392;-6.248;2022-12-07T00:48:35;8.80;;;4.60;;
43706;SDS011;61348;53.392;-6.248;2022-12-07T00:51:02;12.57;;;3.75;;
43706;SDS011;61348;53.392;-6.248;2022-12-07T00:53:30;9.18;;;3.28;;
43706;SDS011;61348;53.392;-6.248;2022-12-07T00:56:07;11.20;;;3.78;;
43706;SDS011;61348;53.392;-6.248;2022-12-07T00:58:55;10.98;;;3.67;;
43706;SDS011;61348;53.392;-6.248;2022-12-07T01:01:22;6.13;;;3.03;;
43706;SDS011;61348;53.392;-6.248;2022-12-07T01:03:50;6.85;;;3.15;;
43706;SDS011;61348;53.392;-6.248;2022-12-07T01:06:18;8.70;;;4.70;;
43706;SDS011;61348;53.392;-6.248;2022-12-07T01:08:46;9.77;;;3.58;;
43706;SDS011;61348;53.392;-6.248;2022-12-07T01:11:15;10.40;;;4.55;;
43706;SDS011;61348;53.392;-6.248;2022-12-07T01:13:43;11.35;;;4.97;;
43706;SDS011;61348;53.392;-6.248;2022-12-07T01:16:14;11.18;;;4.47;;
43706;SDS011;61348;53.392;-6.248;2022-12-07T01:18:42;7.65;;;4.20;;
43706;SDS011;61348;53.392;-6.248;2022-12-07T01:21:13;7.75;;;3.40;;
43706;SDS011;61348;53.392;-6.248;2022-12-07T01:23:40;10.52;;;4.25;;
43706;SDS011;61348;53.392;-6.248;2022-12-07T01:26:09;10.13;;;4.13;;
43706;SDS011;61348;53.392;-6.248;2022-12-07T01:28:38;6.20;;;3.75;;
43706;SDS011;61348;53.392;-6.248;2022-12-07T01:31:06;10.60;;;3.97;;
43706;SDS011;61348;53.392;-6.248;2022-12-07T01:33:37;7.07;;;3.97;;
43706;SDS011;61348;53.392;-6.248;2022-12-07T01:36:06;12.18;;;3.72;;
43706;SDS011;61348;53.392;-6.248;2022-12-07T01:38:39;9.32;;;4.03;;
43706;SDS011;61348;53.392;-6.248;2022-12-07T01:41:06;11.18;;;4.28;;
43706;SDS011;61348;53.392;-6.248;2022-12-07T01:43:34;8.68;;;4.03;;
43706;SDS011;61348;53.392;-6.248;2022-12-07T01:46:02;6.95;;;3.45;;
43706;SDS011;61348;53.392;-6.248;2022-12-07T01:51:00;6.55;;;2.85;;
43706;SDS011;61348;53.392;-6.248;2022-12-07T01:53:30;5.60;;;3.33;;
43706;SDS011;61348;53.392;-6.248;2022-12-07T01:56:01;6.13;;;3.05;;
43706;SDS011;61348;53.392;-6.248;2022-12-07T01:58:27;9.75;;;4.40;;
43706;SDS011;61348;53.392;-6.248;2022-12-07T02:00:54;14.82;;;4.15;;
43706;SDS011;61348;53.392;-6.248;2022-12-07T02:03:27;7.88;;;2.83;;
43706;SDS011;61348;53.392;-6.248;2022-12-07T02:05:58;10.85;;;3.28;;
43706;SDS011;61348;53.392;-6.248;2022-12-07T02:08:26;8.98;;;3.08;;
43706;SDS011;61348;53.392;-6.248;2022-12-07T02:10:53;6.50;;;2.83;;
43706;SDS011;61348;53.392;-6.248;2022-12-07T02:13:21;7.97;;;3.72;;
43706;SDS011;61348;53.392;-6.248;2022-12-07T02:30:50;8.32;;;2.97;;
43706;SDS011;61348;53.392;-6.248;2022-12-07T02:33:24;15.35;;;3.78;;
43706;SDS011;61348;53.392;-6.248;2022-12-07T02:35:56;5.90;;;2.47;;
43706;SDS011;61348;53.392;-6.248;2022-12-07T02:38:33;7.43;;;4.13;;
43706;SDS011;61348;53.392;-6.248;2022-12-07T02:41:06;5.95;;;3.42;;
43706;SDS011;61348;53.392;-6.248;2022-12-07T02:46:10;7.45;;;3.17;;
43706;SDS011;61348;53.392;-6.248;2022-12-07T02:48:41;8.47;;;2.77;;
43706;SDS011;61348;53.392;-6.248;2022-12-07T02:51:09;10.75;;;3.88;;
43706;SDS011;61348;53.392;-6.248;2022-12-07T03:10:14;7.15;;;3.85;;
43706;SDS011;61348;53.392;-6.248;2022-12-07T03:15:31;10.45;;;4.95;;
43706;SDS011;61348;53.392;-6.248;2022-12-07T03:18:08;6.60;;;4.38;;
43706;SDS011;61348;53.392;-6.248;2022-12-07T03:20:40;7.25;;;3.75;;
43706;SDS011;61348;53.392;-6.248;2022-12-07T03:23:10;5.35;;;2.97;;
43706;SDS011;61348;53.392;-6.248;2022-12-07T03:25:40;7.03;;;3.20;;
43706;SDS011;61348;53.392;-6.248;2022-12-07T03:28:12;11.93;;;3.55;;
43706;SDS011;61348;53.392;-6.248;2022-12-07T03:33:18;9.70;;;3.00;;
43706;SDS011;61348;53.392;-6.248;2022-12-07T03:35:52;11.70;;;3.90;;
43706;SDS011;61348;53.392;-6.248;2022-12-07T03:41:14;11.05;;;4.60;;
43706;SDS011;61348;53.392;-6.248;2022-12-07T03:43:46;10.38;;;4.60;;
43706;SDS011;61348;53.392;-6.248;2022-12-07T03:54:32;6.97;;;3.15;;
43706;SDS011;61348;53.392;-6.248;2022-12-07T03:57:04;7.53;;;3.45;;
43706;SDS011;61348;53.392;-6.248;2022-12-07T03:59:32;8.32;;;3.88;;
43706;SDS011;61348;53.392;-6.248;2022-12-07T04:02:03;6.18;;;3.55;;
43706;SDS011;61348;53.392;-6.248;2022-12-07T04:04:32;5.82;;;3.60;;
43706;SDS011;61348;53.392;-6.248;2022-12-07T04:07:01;9.77;;;4.15;;
43706;SDS011;61348;53.392;-6.248;2022-12-07T04:09:29;16.38;;;3.80;;
43706;SDS011;61348;53.392;-6.248;2022-12-07T04:11:55;10.45;;;4.88;;
43706;SDS011;61348;53.392;-6.248;2022-12-07T04:14:22;7.13;;;2.92;;
43706;SDS011;61348;53.392;-6.248;2022-12-07T04:16:50;8.73;;;2.72;;
43706;SDS011;61348;53.392;-6.248;2022-12-07T04:19:18;6.25;;;2.88;;
43706;SDS011;61348;53.392;-6.248;2022-12-07T04:21:47;8.57;;;3.65;;
43706;SDS011;61348;53.392;-6.248;2022-12-07T04:24:14;10.50;;;3.55;;
43706;SDS011;61348;53.392;-6.248;2022-12-07T04:26:47;8.15;;;3.22;;
43706;SDS011;61348;53.392;-6.248;2022-12-07T04:29:14;6.00;;;3.08;;
43706;SDS011;61348;53.392;-6.248;2022-12-07T04:31:42;8.90;;;4.32;;
43706;SDS011;61348;53.392;-6.248;2022-12-07T04:34:09;5.50;;;2.80;;
43706;SDS011;61348;53.392;-6.248;2022-12-07T04:36:37;7.53;;;4.60;;
43706;SDS011;61348;53.392;-6.248;2022-12-07T04:39:05;7.20;;;2.75;;
43706;SDS011;61348;53.392;-6.248;2022-12-07T04:41:33;10.95;;;3.20;;
43706;SDS011;61348;53.392;-6.248;2022-12-07T04:44:01;5.18;;;2.88;;
43706;SDS011;61348;53.392;-6.248;2022-12-07T04:46:31;6.88;;;3.38;;
43706;SDS011;61348;53.392;-6.248;2022-12-07T04:48:58;9.13;;;3.70;;
43706;SDS011;61348;53.392;-6.248;2022-12-07T04:51:26;8.93;;;3.63;;
43706;SDS011;61348;53.392;-6.248;2022-12-07T04:53:54;7.15;;;3.05;;
43706;SDS011;61348;53.392;-6.248;2022-12-07T04:56:22;9.73;;;3.35;;
43706;SDS011;61348;53.392;-6.248;2022-12-07T04:58:49;3.88;;;2.63;;
43706;SDS011;61348;53.392;-6.248;2022-12-07T05:01:17;6.70;;;3.28;;
43706;SDS011;61348;53.392;-6.248;2022-12-07T05:03:45;13.07;;;3.47;;
43706;SDS011;61348;53.392;-6.248;2022-12-07T05:06:12;6.30;;;2.88;;
43706;SDS011;61348;53.392;-6.248;2022-12-07T05:08:39;7.53;;;3.30;;
43706;SDS011;61348;53.392;-6.248;2022-12-07T05:11:07;8.73;;;3.70;;
43706;SDS011;61348;53.392;-6.248;2022-12-07T05:13:34;7.32;;;4.18;;
43706;SDS011;61348;53.392;-6.248;2022-12-07T05:16:02;7.00;;;3.38;;
43706;SDS011;61348;53.392;-6.248;2022-12-07T05:18:29;4.88;;;3.00;;
43706;SDS011;61348;53.392;-6.248;2022-12-07T05:20:55;7.35;;;3.38;;
43706;SDS011;61348;53.392;-6.248;2022-12-07T05:23:22;9.07;;;3.80;;
43706;SDS011;61348;53.392;-6.248;2022-12-07T05:25:49;8.45;;;3.95;;
43706;SDS011;61348;53.392;-6.248;2022-12-07T05:28:16;7.65;;;4.78;;
43706;SDS011;61348;53.392;-6.248;2022-12-07T05:30:42;7.07;;;3.47;;
43706;SDS011;61348;53.392;-6.248;2022-12-07T05:33:09;11.35;;;4.30;;
43706;SDS011;61348;53.392;-6.248;2022-12-07T05:35:36;6.60;;;2.97;;
43706;SDS011;61348;53.392;-6.248;2022-12-07T05:38:04;10.25;;;4.00;;
43706;SDS011;61348;53.392;-6.248;2022-12-07T05:40:30;16.00;;;3.75;;
43706;SDS011;61348;53.392;-6.248;2022-12-07T05:42:57;6.28;;;2.70;;
43706;SDS011;61348;53.392;-6.248;2022-12-07T05:45:30;10.52;;;3.88;;
43706;SDS011;61348;53.392;-6.248;2022-12-07T05:47:56;5.75;;;2.83;;
43706;SDS011;61348;53.392;-6.248;2022-12-07T05:50:23;14.55;;;4.30;;
43706;SDS011;61348;53.392;-6.248;2022-12-07T05:52:50;8.65;;;3.58;;
43706;SDS011;61348;53.392;-6.248;2022-12-07T05:55:17;8.15;;;3.70;;
43706;SDS011;61348;53.392;-6.248;2022-12-07T05:57:43;6.05;;;2.97;;
43706;SDS011;61348;53.392;-6.248;2022-12-07T06:00:30;8.23;;;3.25;;
43706;SDS011;61348;53.392;-6.248;2022-12-07T06:02:58;4.95;;;3.03;;
43706;SDS011;61348;53.392;-6.248;2022-12-07T06:05:24;11.55;;;3.35;;
43706;SDS011;61348;53.392;-6.248;2022-12-07T06:07:51;8.52;;;3.42;;
43706;SDS011;61348;53.392;-6.248;2022-12-07T06:10:18;9.13;;;4.25;;
43706;SDS011;61348;53.392;-6.248;2022-12-07T06:12:44;6.43;;;3.17;;
43706;SDS011;61348;53.392;-6.248;2022-12-07T06:15:12;11.38;;;3.03;;
43706;SDS011;61348;53.392;-6.248;2022-12-07T06:17:39;5.50;;;2.72;;
43706;SDS011;61348;53.392;-6.248;2022-12-07T06:20:06;8.13;;;3.53;;
43706;SDS011;61348;53.392;-6.248;2022-12-07T06:22:33;12.82;;;3.53;;
43706;SDS011;61348;53.392;-6.248;2022-12-07T06:24:59;7.20;;;3.15;;
43706;SDS011;61348;53.392;-6.248;2022-12-07T06:27:33;7.60;;;3.90;;
43706;SDS011;61348;53.392;-6.248;2022-12-07T06:30:01;9.13;;;4.05;;
43706;SDS011;61348;53.392;-6.248;2022-12-07T06:32:33;7.32;;;3.42;;
43706;SDS011;61348;53.392;-6.248;2022-12-07T06:34:59;6.32;;;2.95;;
43706;SDS011;61348;53.392;-6.248;2022-12-07T06:37:26;7.25;;;3.22;;
43706;SDS011;61348;53.392;-6.248;2022-12-07T06:39:53;7.40;;;3.35;;
43706;SDS011;61348;53.392;-6.248;2022-12-07T06:42:19;5.60;;;3.38;;
43706;SDS011;61348;53.392;-6.248;2022-12-07T06:44:46;11.00;;;3.47;;
43706;SDS011;61348;53.392;-6.248;2022-12-07T06:47:13;8.70;;;3.20;;
43706;SDS011;61348;53.392;-6.248;2022-12-07T06:49:59;9.15;;;3.20;;
43706;SDS011;61348;53.392;-6.248;2022-12-07T06:52:27;5.28;;;2.78;;
43706;SDS011;61348;53.392;-6.248;2022-12-07T06:54:53;7.80;;;3.60;;
43706;SDS011;61348;53.392;-6.248;2022-12-07T06:57:20;7.70;;;3.40;;
43706;SDS011;61348;53.392;-6.248;2022-12-07T06:59:47;6.85;;;3.13;;
43706;SDS011;61348;53.392;-6.248;2022-12-07T07:02:13;7.80;;;3.70;;
43706;SDS011;61348;53.392;-6.248;2022-12-07T07:04:40;8.40;;;3.60;;
43706;SDS011;61348;53.392;-6.248;2022-12-07T07:07:07;10.60;;;4.28;;
43706;SDS011;61348;53.392;-6.248;2022-12-07T07:09:33;11.50;;;5.57;;
43706;SDS011;61348;53.392;-6.248;2022-12-07T07:12:00;14.57;;;4.38;;
43706;SDS011;61348;53.392;-6.248;2022-12-07T07:14:27;9.32;;;5.25;;
43706;SDS011;61348;53.392;-6.248;2022-12-07T07:16:54;8.98;;;5.68;;
43706;SDS011;61348;53.392;-6.248;2022-12-07T07:19:20;17.00;;;5.80;;
43706;SDS011;61348;53.392;-6.248;2022-12-07T07:21:47;9.30;;;5.68;;
43706;SDS011;61348;53.392;-6.248;2022-12-07T07:24:14;9.88;;;6.25;;
43706;SDS011;61348;53.392;-6.248;2022-12-07T07:26:40;9.85;;;5.60;;
43706;SDS011;61348;53.392;-6.248;2022-12-07T07:29:07;13.32;;;4.63;;
43706;SDS011;61348;53.392;-6.248;2022-12-07T07:31:34;8.38;;;3.92;;
43706;SDS011;61348;53.392;-6.248;2022-12-07T07:34:01;14.95;;;4.40;;
43706;SDS011;61348;53.392;-6.248;2022-12-07T07:36:28;7.68;;;5.20;;
43706;SDS011;61348;53.392;-6.248;2022-12-07T07:38:55;6.45;;;3.03;;
43706;SDS011;61348;53.392;-6.248;2022-12-07T07:41:21;4.90;;;2.65;;
43706;SDS011;61348;53.392;-6.248;2022-12-07T07:43:48;6.80;;;2.67;;
43706;SDS011;61348;53.392;-6.248;2022-12-07T07:46:14;7.07;;;2.78;;
43706;SDS011;61348;53.392;-6.248;2022-12-07T07:48:42;6.35;;;2.60;;
43706;SDS011;61348;53.392;-6.248;2022-12-07T07:51:09;6.47;;;3.13;;
43706;SDS011;61348;53.392;-6.248;2022-12-07T07:53:36;7.75;;;2.63;;
43706;SDS011;61348;53.392;-6.248;2022-12-07T07:56:03;7.10;;;3.60;;
43706;SDS011;61348;53.392;-6.248;2022-12-07T07:58:29;6.93;;;3.17;;
43706;SDS011;61348;53.392;-6.248;2022-12-07T08:00:56;7.25;;;2.97;;
43706;SDS011;61348;53.392;-6.248;2022-12-07T08:03:23;5.63;;;2.97;;
43706;SDS011;61348;53.392;-6.248;2022-12-07T08:05:49;6.75;;;2.95;;
43706;SDS011;61348;53.392;-6.248;2022-12-07T08:08:16;6.93;;;2.92;;
43706;SDS011;61348;53.392;-6.248;2022-12-07T08:10:43;8.60;;;3.13;;
43706;SDS011;61348;53.392;-6.248;2022-12-07T08:13:10;6.07;;;2.80;;
43706;SDS011;61348;53.392;-6.248;2022-12-07T08:15:37;6.88;;;2.63;;
43706;SDS011;61348;53.392;-6.248;2022-12-07T08:18:05;5.85;;;2.53;;
43706;SDS011;61348;53.392;-6.248;2022-12-07T08:20:33;5.10;;;2.42;;
43706;SDS011;61348;53.392;-6.248;2022-12-07T08:23:00;5.10;;;2.53;;
43706;SDS011;61348;53.392;-6.248;2022-12-07T08:25:28;3.55;;;2.13;;
43706;SDS011;61348;53.392;-6.248;2022-12-07T08:27:55;5.90;;;2.55;;
43706;SDS011;61348;53.392;-6.248;2022-12-07T08:30:22;4.28;;;1.83;;
43706;SDS011;61348;53.392;-6.248;2022-12-07T08:32:49;5.85;;;2.67;;
43706;SDS011;61348;53.392;-6.248;2022-12-07T08:35:16;4.88;;;2.25;;
43706;SDS011;61348;53.392;-6.248;2022-12-07T08:37:43;4.20;;;1.77;;
43706;SDS011;61348;53.392;-6.248;2022-12-07T08:40:10;5.07;;;2.00;;
43706;SDS011;61348;53.392;-6.248;2022-12-07T08:42:48;5.43;;;2.58;;
43706;SDS011;61348;53.392;-6.248;2022-12-07T08:45:18;5.93;;;2.42;;
43706;SDS011;61348;53.392;-6.248;2022-12-07T08:48:00;7.72;;;3.00;;
43706;SDS011;61348;53.392;-6.248;2022-12-07T08:50:32;12.15;;;2.80;;
43706;SDS011;61348;53.392;-6.248;2022-12-07T08:53:00;7.00;;;2.30;;
43706;SDS011;61348;53.392;-6.248;2022-12-07T08:55:27;7.85;;;2.90;;
43706;SDS011;61348;53.392;-6.248;2022-12-07T08:57:55;4.07;;;2.20;;
43706;SDS011;61348;53.392;-6.248;2022-12-07T09:00:25;4.38;;;1.73;;
43706;SDS011;61348;53.392;-6.248;2022-12-07T09:02:53;7.78;;;2.83;;
43706;SDS011;61348;53.392;-6.248;2022-12-07T09:05:20;5.85;;;2.17;;
43706;SDS011;61348;53.392;-6.248;2022-12-07T09:07:48;3.30;;;2.20;;
43706;SDS011;61348;53.392;-6.248;2022-12-07T09:10:19;7.43;;;2.67;;
43706;SDS011;61348;53.392;-6.248;2022-12-07T09:12:45;6.85;;;2.25;;
43706;SDS011;61348;53.392;-6.248;2022-12-07T09:15:12;5.38;;;2.10;;
43706;SDS011;61348;53.392;-6.248;2022-12-07T09:17:39;3.80;;;2.05;;
43706;SDS011;61348;53.392;-6.248;2022-12-07T09:20:06;6.75;;;2.10;;
43706;SDS011;61348;53.392;-6.248;2022-12-07T09:22:33;3.83;;;2.10;;
43706;SDS011;61348;53.392;-6.248;2022-12-07T09:25:00;5.47;;;2.22;;
43706;SDS011;61348;53.392;-6.248;2022-12-07T09:27:28;5.55;;;2.40;;
43706;SDS011;61348;53.392;-6.248;2022-12-07T09:29:54;3.33;;;2.13;;
43706;SDS011;61348;53.392;-6.248;2022-12-07T09:32:21;8.35;;;2.50;;
43706;SDS011;61348;53.392;-6.248;2022-12-07T09:34:49;11.50;;;3.60;;
43706;SDS011;61348;53.392;-6.248;2022-12-07T09:37:16;3.67;;;2.38;;
43706;SDS011;61348;53.392;-6.248;2022-12-07T09:39:43;9.60;;;2.92;;
43706;SDS011;61348;53.392;-6.248;2022-12-07T09:42:58;8.35;;;4.53;;
43706;SDS011;61348;53.392;-6.248;2022-12-07T09:45:14;4.82;;;2.42;;
43706;SDS011;61348;53.392;-6.248;2022-12-07T09:47:45;7.20;;;2.80;;
43706;SDS011;61348;53.392;-6.248;2022-12-07T09:50:14;10.02;;;4.45;;
43706;SDS011;61348;53.392;-6.248;2022-12-07T09:52:44;10.02;;;2.83;;
43706;SDS011;61348;53.392;-6.248;2022-12-07T09:55:15;6.70;;;3.15;;
43706;SDS011;61348;53.392;-6.248;2022-12-07T09:57:45;9.80;;;3.80;;
43706;SDS011;61348;53.392;-6.248;2022-12-07T10:00:14;4.90;;;3.50;;
43706;SDS011;61348;53.392;-6.248;2022-12-07T10:02:56;7.03;;;3.85;;
43706;SDS011;61348;53.392;-6.248;2022-12-07T10:08:03;6.80;;;3.28;;
43706;SDS011;61348;53.392;-6.248;2022-12-07T10:10:31;14.18;;;6.00;;
43706;SDS011;61348;53.392;-6.248;2022-12-07T10:15:42;9.52;;;4.55;;
43706;SDS011;61348;53.392;-6.248;2022-12-07T10:23:39;12.27;;;4.93;;
43706;SDS011;61348;53.392;-6.248;2022-12-07T10:29:00;8.85;;;4.07;;
43706;SDS011;61348;53.392;-6.248;2022-12-07T10:31:40;10.82;;;4.30;;
43706;SDS011;61348;53.392;-6.248;2022-12-07T10:34:24;14.77;;;4.15;;
43706;SDS011;61348;53.392;-6.248;2022-12-07T10:36:53;11.95;;;5.63;;
43706;SDS011;61348;53.392;-6.248;2022-12-07T10:39:55;7.07;;;3.55;;
43706;SDS011;61348;53.392;-6.248;2022-12-07T10:42:27;9.90;;;3.92;;
43706;SDS011;61348;53.392;-6.248;2022-12-07T10:53:50;7.40;;;3.65;;
43706;SDS011;61348;53.392;-6.248;2022-12-07T11:01:57;15.23;;;4.80;;
43706;SDS011;61348;53.392;-6.248;2022-12-07T11:05:11;12.18;;;4.78;;
43706;SDS011;61348;53.392;-6.248;2022-12-07T11:11:22;10.55;;;3.47;;
43706;SDS011;61348;53.392;-6.248;2022-12-07T11:17:14;10.18;;;4.88;;
43706;SDS011;61348;53.392;-6.248;2022-12-07T11:22:24;6.10;;;3.55;;
43706;SDS011;61348;53.392;-6.248;2022-12-07T11:36:17;6.80;;;2.50;;
43706;SDS011;61348;53.392;-6.248;2022-12-07T11:39:04;8.93;;;1.23;;
43706;SDS011;61348;53.392;-6.248;2022-12-07T11:41:42;3.78;;;1.30;;
43706;SDS011;61348;53.392;-6.248;2022-12-07T11:44:25;1.98;;;1.00;;
43706;SDS011;61348;53.392;-6.248;2022-12-07T11:47:02;5.18;;;1.08;;
43706;SDS011;61348;53.392;-6.248;2022-12-07T11:52:27;5.68;;;1.00;;
43706;SDS011;61348;53.392;-6.248;2022-12-07T12:00:51;5.78;;;2.00;;
43706;SDS011;61348;53.392;-6.248;2022-12-07T12:03:32;1.55;;;0.85;;
43706;SDS011;61348;53.392;-6.248;2022-12-07T12:06:02;3.42;;;0.85;;
43706;SDS011;61348;53.392;-6.248;2022-12-07T12:11:31;6.72;;;1.63;;
43706;SDS011;61348;53.392;-6.248;2022-12-07T12:17:17;2.05;;;0.50;;
43706;SDS011;61348;53.392;-6.248;2022-12-07T12:19:59;3.55;;;1.13;;
43706;SDS011;61348;53.392;-6.248;2022-12-07T12:22:34;4.50;;;1.27;;
43706;SDS011;61348;53.392;-6.248;2022-12-07T12:25:06;3.65;;;1.48;;
43706;SDS011;61348;53.392;-6.248;2022-12-07T12:27:42;1.67;;;1.10;;
43706;SDS011;61348;53.392;-6.248;2022-12-07T12:47:01;3.80;;;0.85;;
43706;SDS011;61348;53.392;-6.248;2022-12-07T12:49:40;2.00;;;0.80;;
43706;SDS011;61348;53.392;-6.248;2022-12-07T12:55:16;5.28;;;1.88;;
43706;SDS011;61348;53.392;-6.248;2022-12-07T12:58:21;2.17;;;1.33;;
43706;SDS011;61348;53.392;-6.248;2022-12-07T13:00:46;3.63;;;1.10;;
43706;SDS011;61348;53.392;-6.248;2022-12-07T13:03:50;4.78;;;1.40;;
43706;SDS011;61348;53.392;-6.248;2022-12-07T13:06:19;3.38;;;1.73;;
43706;SDS011;61348;53.392;-6.248;2022-12-07T13:09:01;3.58;;;1.88;;
43706;SDS011;61348;53.392;-6.248;2022-12-07T13:11:29;5.40;;;1.63;;
43706;SDS011;61348;53.392;-6.248;2022-12-07T13:17:12;6.47;;;2.08;;
43706;SDS011;61348;53.392;-6.248;2022-12-07T13:19:59;4.85;;;1.40;;
43706;SDS011;61348;53.392;-6.248;2022-12-07T13:27:37;3.05;;;1.85;;
43706;SDS011;61348;53.392;-6.248;2022-12-07T13:30:13;17.92;;;5.10;;
43706;SDS011;61348;53.392;-6.248;2022-12-07T13:32:42;20.58;;;7.25;;
43706;SDS011;61348;53.392;-6.248;2022-12-07T13:41:13;5.65;;;2.30;;
43706;SDS011;61348;53.392;-6.248;2022-12-07T13:46:17;8.18;;;2.53;;
43706;SDS011;61348;53.392;-6.248;2022-12-07T13:48:52;2.63;;;1.50;;
43706;SDS011;61348;53.392;-6.248;2022-12-07T13:51:20;2.90;;;1.23;;
43706;SDS011;61348;53.392;-6.248;2022-12-07T13:53:53;4.80;;;1.35;;
43706;SDS011;61348;53.392;-6.248;2022-12-07T13:56:22;3.70;;;1.00;;
43706;SDS011;61348;53.392;-6.248;2022-12-07T13:59:02;2.15;;;1.00;;
43706;SDS011;61348;53.392;-6.248;2022-12-07T14:01:32;3.05;;;0.98;;
43706;SDS011;61348;53.392;-6.248;2022-12-07T14:04:19;2.33;;;1.20;;
43706;SDS011;61348;53.392;-6.248;2022-12-07T14:06:49;4.00;;;2.28;;
43706;SDS011;61348;53.392;-6.248;2022-12-07T14:09:18;3.80;;;1.77;;
43706;SDS011;61348;53.392;-6.248;2022-12-07T14:11:46;4.93;;;1.48;;
43706;SDS011;61348;53.392;-6.248;2022-12-07T14:14:33;8.85;;;2.35;;
43706;SDS011;61348;53.392;-6.248;2022-12-07T14:22:56;6.35;;;2.70;;
43706;SDS011;61348;53.392;-6.248;2022-12-07T14:27:46;8.07;;;2.53;;
43706;SDS011;61348;53.392;-6.248;2022-12-07T14:30:19;4.32;;;1.70;;
43706;SDS011;61348;53.392;-6.248;2022-12-07T14:32:48;7.57;;;2.38;;
43706;SDS011;61348;53.392;-6.248;2022-12-07T14:35:19;8.25;;;4.38;;
43706;SDS011;61348;53.392;-6.248;2022-12-07T14:37:47;10.35;;;5.05;;
43706;SDS011;61348;53.392;-6.248;2022-12-07T14:40:20;11.13;;;4.25;;
43706;SDS011;61348;53.392;-6.248;2022-12-07T14:42:51;7.80;;;2.47;;
43706;SDS011;61348;53.392;-6.248;2022-12-07T14:45:30;4.32;;;1.42;;
43706;SDS011;61348;53.392;-6.248;2022-12-07T14:47:57;5.25;;;1.10;;
43706;SDS011;61348;53.392;-6.248;2022-12-07T14:50:45;6.30;;;1.58;;
43706;SDS011;61348;53.392;-6.248;2022-12-07T14:53:39;9.10;;;1.73;;
43706;SDS011;61348;53.392;-6.248;2022-12-07T14:58:36;7.07;;;1.90;;
43706;SDS011;61348;53.392;-6.248;2022-12-07T15:01:02;6.75;;;2.70;;
43706;SDS011;61348;53.392;-6.248;2022-12-07T15:03:29;7.20;;;2.47;;
43706;SDS011;61348;53.392;-6.248;2022-12-07T15:05:56;5.15;;;2.17;;
43706;SDS011;61348;53.392;-6.248;2022-12-07T15:08:23;4.65;;;2.30;;
43706;SDS011;61348;53.392;-6.248;2022-12-07T15:10:50;7.30;;;2.95;;
43706;SDS011;61348;53.392;-6.248;2022-12-07T15:13:17;4.50;;;1.95;;
43706;SDS011;61348;53.392;-6.248;2022-12-07T15:16:03;7.80;;;2.13;;
43706;SDS011;61348;53.392;-6.248;2022-12-07T15:18:30;7.65;;;2.50;;
43706;SDS011;61348;53.392;-6.248;2022-12-07T15:20:56;6.28;;;1.85;;
43706;SDS011;61348;53.392;-6.248;2022-12-07T15:23:23;5.78;;;1.80;;
43706;SDS011;61348;53.392;-6.248;2022-12-07T15:25:50;3.20;;;1.23;;
43706;SDS011;61348;53.392;-6.248;2022-12-07T15:28:16;5.22;;;3.22;;
43706;SDS011;61348;53.392;-6.248;2022-12-07T15:30:44;2.97;;;1.20;;
43706;SDS011;61348;53.392;-6.248;2022-12-07T15:33:12;2.50;;;1.33;;
43706;SDS011;61348;53.392;-6.248;2022-12-07T15:35:43;8.07;;;2.13;;
43706;SDS011;61348;53.392;-6.248;2022-12-07T15:38:10;10.40;;;3.00;;
43706;SDS011;61348;53.392;-6.248;2022-12-07T15:40:38;4.75;;;2.40;;
43706;SDS011;61348;53.392;-6.248;2022-12-07T15:43:05;10.13;;;2.63;;
43706;SDS011;61348;53.392;-6.248;2022-12-07T15:45:51;5.93;;;2.58;;
43706;SDS011;61348;53.392;-6.248;2022-12-07T15:48:18;8.20;;;1.88;;
43706;SDS011;61348;53.392;-6.248;2022-12-07T15:51:01;5.38;;;2.33;;
43706;SDS011;61348;53.392;-6.248;2022-12-07T15:53:36;4.60;;;2.22;;
43706;SDS011;61348;53.392;-6.248;2022-12-07T15:56:07;6.70;;;2.83;;
43706;SDS011;61348;53.392;-6.248;2022-12-07T15:58:34;7.20;;;3.35;;
43706;SDS011;61348;53.392;-6.248;2022-12-07T16:01:09;10.68;;;4.60;;
43706;SDS011;61348;53.392;-6.248;2022-12-07T16:03:37;6.28;;;2.88;;
43706;SDS011;61348;53.392;-6.248;2022-12-07T16:06:04;8.98;;;2.53;;
43706;SDS011;61348;53.392;-6.248;2022-12-07T16:08:31;6.45;;;3.20;;
43706;SDS011;61348;53.392;-6.248;2022-12-07T16:11:05;6.07;;;2.85;;
43706;SDS011;61348;53.392;-6.248;2022-12-07T16:13:33;8.52;;;4.35;;
43706;SDS011;61348;53.392;-6.248;2022-12-07T16:16:03;6.43;;;2.88;;
43706;SDS011;61348;53.392;-6.248;2022-12-07T16:18:31;6.10;;;1.80;;
43706;SDS011;61348;53.392;-6.248;2022-12-07T16:20:58;9.00;;;4.43;;
43706;SDS011;61348;53.392;-6.248;2022-12-07T16:23:25;10.07;;;5.60;;
43706;SDS011;61348;53.392;-6.248;2022-12-07T16:25:52;13.02;;;5.38;;
43706;SDS011;61348;53.392;-6.248;2022-12-07T16:28:20;14.02;;;6.57;;
43706;SDS011;61348;53.392;-6.248;2022-12-07T16:30:46;14.40;;;6.32;;
43706;SDS011;61348;53.392;-6.248;2022-12-07T16:33:13;19.55;;;7.85;;
43706;SDS011;61348;53.392;-6.248;2022-12-07T16:35:40;12.60;;;6.53;;
43706;SDS011;61348;53.392;-6.248;2022-12-07T16:38:07;13.27;;;5.65;;
43706;SDS011;61348;53.392;-6.248;2022-12-07T16:40:33;10.05;;;5.05;;
43706;SDS011;61348;53.392;-6.248;2022-12-07T16:43:00;11.60;;;4.60;;
43706;SDS011;61348;53.392;-6.248;2022-12-07T16:45:27;11.48;;;4.15;;
43706;SDS011;61348;53.392;-6.248;2022-12-07T16:47:55;12.82;;;4.30;;
43706;SDS011;61348;53.392;-6.248;2022-12-07T16:50:21;8.15;;;4.78;;
43706;SDS011;61348;53.392;-6.248;2022-12-07T16:52:48;12.95;;;5.15;;
43706;SDS011;61348;53.392;-6.248;2022-12-07T16:55:15;13.73;;;5.82;;
43706;SDS011;61348;53.392;-6.248;2022-12-07T16:57:41;11.05;;;5.07;;
43706;SDS011;61348;53.392;-6.248;2022-12-07T17:00:09;9.65;;;4.80;;
43706;SDS011;61348;53.392;-6.248;2022-12-07T17:02:36;7.50;;;4.57;;
43706;SDS011;61348;53.392;-6.248;2022-12-07T17:05:03;12.15;;;5.50;;
43706;SDS011;61348;53.392;-6.248;2022-12-07T17:07:30;13.68;;;6.47;;
43706;SDS011;61348;53.392;-6.248;2022-12-07T17:09:57;16.27;;;8.38;;
43706;SDS011;61348;53.392;-6.248;2022-12-07T17:12:24;16.67;;;8.93;;
43706;SDS011;61348;53.392;-6.248;2022-12-07T17:14:52;12.95;;;6.90;;
43706;SDS011;61348;53.392;-6.248;2022-12-07T17:17:37;16.10;;;8.07;;
43706;SDS011;61348;53.392;-6.248;2022-12-07T17:20:04;10.45;;;5.38;;
43706;SDS011;61348;53.392;-6.248;2022-12-07T17:22:31;9.00;;;4.68;;
43706;SDS011;61348;53.392;-6.248;2022-12-07T17:24:59;17.77;;;6.97;;
43706;SDS011;61348;53.392;-6.248;2022-12-07T17:27:25;12.07;;;6.45;;
43706;SDS011;61348;53.392;-6.248;2022-12-07T17:29:52;11.85;;;6.57;;
43706;SDS011;61348;53.392;-6.248;2022-12-07T17:32:19;14.68;;;8.43;;
43706;SDS011;61348;53.392;-6.248;2022-12-07T17:34:47;24.27;;;11.45;;
43706;SDS011;61348;53.392;-6.248;2022-12-07T17:37:13;31.67;;;16.27;;